Time;durP1;ratioP1;P1;durP2;ratioP2;P2;SDS_P1;SDS_P2;PMS_P1;PMS_P2;Temp;Humidity;BMP_temperature;BMP_pressure;BME280_temperature;BME280_humidity;BME280_pressure;Samples;Min_cycle;Max_cycle;Signal;HPM_P1;HPM_P2
2023/06/19 00:01:19;;;;;;;;;15.33;10.67;;;;;22.09;79.13;99873.56;5059324;28;45427;-76
2023/06/19 00:03:45;;;;;;;;;13.67;13.67;;;;;22.07;79.04;99875.41;5041281;28;45379;-75
2023/06/19 00:06:12;;;;;;;;;15.00;13.00;;;;;22.05;78.99;99862.13;5041300;28;45572;-76
2023/06/19 00:08:41;;;;;;;;;16.00;14.00;;;;;22.16;79.73;99874.25;5041285;28;45446;-76
2023/06/19 00:11:06;;;;;;;;;12.00;11.00;;;;;22.12;79.17;99860.16;5059805;28;45277;-76
2023/06/19 00:13:33;;;;;;;;;15.00;14.00;;;;;22.15;79.25;99860.09;5059573;28;45516;-76
2023/06/19 00:16:00;;;;;;;;;15.33;12.00;;;;;22.10;79.44;99861.13;5059689;28;45423;-76
2023/06/19 00:18:28;;;;;;;;;13.67;12.00;;;;;22.10;78.98;99862.00;5058907;28;46923;-76
2023/06/19 00:20:55;;;;;;;;;12.00;11.67;;;;;22.09;79.05;99851.41;5040853;28;45481;-76
2023/06/19 00:23:22;;;;;;;;;12.00;11.00;;;;;22.09;79.72;99862.91;5059385;28;45520;-76
2023/06/19 00:25:47;;;;;;;;;15.67;14.33;;;;;22.05;79.60;99855.94;5058836;28;45216;-76
2023/06/19 00:28:14;;;;;;;;;16.00;14.67;;;;;22.03;79.61;99848.00;5059193;28;45683;-76
2023/06/19 00:30:41;;;;;;;;;13.00;12.00;;;;;22.06;79.50;99847.03;5040793;28;45461;-76
2023/06/19 00:33:07;;;;;;;;;16.67;14.67;;;;;22.09;79.27;99843.44;5041285;28;45414;-76
2023/06/19 00:35:33;;;;;;;;;15.67;13.67;;;;;22.03;79.29;99829.38;5058725;28;45382;-76
2023/06/19 00:38:01;;;;;;;;;16.33;15.33;;;;;22.01;79.26;99822.38;5040368;28;45571;-76
2023/06/19 00:40:29;;;;;;;;;13.67;13.33;;;;;22.13;78.47;99834.47;5058942;28;45244;-76
2023/06/19 00:42:54;;;;;;;;;15.00;12.67;;;;;22.14;78.52;99831.72;5058436;28;45466;-76
2023/06/19 00:45:20;;;;;;;;;14.67;13.00;;;;;22.04;78.75;99815.19;5059177;28;45491;-76
2023/06/19 00:47:46;;;;;;;;;18.33;15.67;;;;;22.04;78.00;99816.94;5058903;28;45489;-76
2023/06/19 00:50:12;;;;;;;;;17.33;15.33;;;;;22.11;77.91;99828.31;5040726;28;45561;-76
2023/06/19 00:52:38;;;;;;;;;12.67;12.33;;;;;22.03;79.00;99826.72;5041296;28;45616;-76
2023/06/19 00:55:06;;;;;;;;;17.67;15.00;;;;;22.03;79.16;99832.06;5059158;28;45226;-76
2023/06/19 00:57:32;;;;;;;;;19.67;18.33;;;;;21.97;79.11;99826.91;5058176;28;45587;-76
2023/06/19 00:59:58;;;;;;;;;20.00;17.67;;;;;21.97;79.17;99820.72;5058591;28;45256;-76
2023/06/19 01:02:25;;;;;;;;;18.67;17.00;;;;;21.94;78.85;99812.81;5040816;28;45190;-76
2023/06/19 01:04:52;;;;;;;;;16.33;15.33;;;;;22.00;79.24;99828.59;5059085;28;45371;-76
2023/06/19 01:07:26;;;;;;;;;16.67;15.00;;;;;21.90;80.00;99825.31;5040265;28;46901;-77
2023/06/19 01:10:04;;;;;;;;;17.33;15.00;;;;;21.90;79.48;99833.28;5058574;28;46038;-76
2023/06/19 01:12:42;;;;;;;;;14.67;14.33;;;;;21.90;79.86;99827.13;5058592;28;45270;-75
2023/06/19 01:15:09;;;;;;;;;17.33;14.67;;;;;21.90;79.95;99817.34;5059093;28;45329;-76
2023/06/19 01:17:36;;;;;;;;;16.67;15.33;;;;;21.94;80.00;99826.97;5058199;28;45354;-76
2023/06/19 01:20:06;;;;;;;;;16.33;15.00;;;;;21.85;80.17;99829.91;5058124;28;45680;-76
2023/06/19 01:22:32;;;;;;;;;14.33;14.33;;;;;21.69;81.17;99828.59;5040334;28;45355;-76
2023/06/19 01:24:58;;;;;;;;;16.00;15.00;;;;;21.58;82.07;99835.06;5058647;28;45302;-76
2023/06/19 01:27:25;;;;;;;;;14.67;14.00;;;;;21.54;82.24;99857.31;5058190;28;45414;-76
2023/06/19 01:29:53;;;;;;;;;18.33;15.67;;;;;21.48;82.17;99870.75;5058147;28;45226;-76
2023/06/19 01:32:33;;;;;;;;;27.00;24.33;;;;;21.54;81.99;99869.72;5040029;28;45486;-76
2023/06/19 01:35:02;;;;;;;;;15.33;14.00;;;;;21.49;82.07;99868.97;5058031;28;45324;-76
2023/06/19 01:37:28;;;;;;;;;15.33;13.67;;;;;21.44;82.46;99858.47;5038259;28;48246;-75
2023/06/19 01:39:58;;;;;;;;;16.00;14.67;;;;;21.50;81.89;99871.59;5057789;28;45499;-76
2023/06/19 01:42:25;;;;;;;;;15.00;14.00;;;;;21.44;82.00;99845.19;5039918;28;45387;-76
2023/06/19 01:44:51;;;;;;;;;11.67;11.67;;;;;21.59;82.33;99871.38;5058127;28;45508;-76
2023/06/19 01:47:19;;;;;;;;;14.67;14.00;;;;;21.56;82.16;99870.56;5057809;28;46029;-76
2023/06/19 01:49:46;;;;;;;;;16.00;15.00;;;;;21.52;81.97;99856.47;5057981;28;45457;-76
2023/06/19 01:52:12;;;;;;;;;17.67;16.33;;;;;21.54;81.26;99865.28;5058150;28;45384;-76
2023/06/19 01:54:38;;;;;;;;;15.33;13.33;;;;;21.53;81.95;99858.25;5058195;28;45252;-76
2023/06/19 01:57:04;;;;;;;;;17.33;16.67;;;;;21.58;81.83;99871.41;5039524;28;46123;-76
2023/06/19 01:59:30;;;;;;;;;15.00;14.00;;;;;21.58;81.52;99892.66;5057634;28;45391;-76
2023/06/19 02:01:55;;;;;;;;;16.00;14.33;;;;;21.56;81.78;99886.50;5057937;28;46005;-76
2023/06/19 02:04:21;;;;;;;;;14.67;14.33;;;;;21.50;80.64;99855.66;5057743;28;45331;-76
2023/06/19 02:06:46;;;;;;;;;18.00;15.67;;;;;21.41;80.37;99842.59;5057581;28;46057;-75
2023/06/19 02:09:12;;;;;;;;;15.67;15.67;;;;;21.38;80.80;99832.88;5039700;28;45497;-76
2023/06/19 02:11:37;;;;;;;;;16.33;15.33;;;;;21.23;80.73;99785.50;5057816;28;45509;-76
2023/06/19 02:14:03;;;;;;;;;13.67;12.67;;;;;21.01;81.73;99762.13;5057588;28;45578;-76
2023/06/19 02:16:28;;;;;;;;;15.33;14.33;;;;;21.06;81.60;99820.44;5057608;28;46349;-76
2023/06/19 02:18:55;;;;;;;;;17.67;15.33;;;;;21.10;82.27;99832.72;5038917;28;45512;-76
2023/06/19 02:21:21;;;;;;;;;16.00;15.33;;;;;21.11;82.56;99823.84;5039649;28;45566;-76
2023/06/19 02:23:46;;;;;;;;;15.00;14.67;;;;;21.16;82.62;99821.06;5057629;28;45308;-76
2023/06/19 02:26:12;;;;;;;;;18.00;15.67;;;;;21.11;83.45;99807.91;5057797;28;46413;-75
2023/06/19 02:28:37;;;;;;;;;18.00;15.00;;;;;21.06;81.61;99791.22;5057436;28;45296;-76
2023/06/19 02:31:02;;;;;;;;;16.00;15.33;;;;;20.97;83.42;99787.03;5057535;28;45390;-76
2023/06/19 02:33:28;;;;;;;;;20.00;17.00;;;;;20.94;82.72;99787.09;5057616;28;45221;-76
2023/06/19 02:35:58;;;;;;;;;15.00;14.67;;;;;20.89;83.31;99769.50;5057045;28;45525;-76
2023/06/19 02:38:29;;;;;;;;;18.33;18.33;;;;;20.81;83.92;99759.09;5039031;28;45462;-76
2023/06/19 02:40:57;;;;;;;;;24.67;20.33;;;;;20.72;85.31;99744.25;5057350;28;45347;-76
2023/06/19 02:43:23;;;;;;;;;16.00;14.00;;;;;20.62;84.97;99738.31;5057435;28;45478;-75
2023/06/19 02:45:48;;;;;;;;;17.00;16.33;;;;;20.53;86.05;99742.94;5056998;28;45441;-76
2023/06/19 02:48:14;;;;;;;;;15.00;14.67;;;;;20.50;87.14;99767.75;5056981;28;45318;-75
2023/06/19 02:50:39;;;;;;;;;20.00;18.67;;;;;20.50;87.09;99767.75;5057131;28;45472;-76
2023/06/19 02:53:05;;;;;;;;;18.00;16.00;;;;;20.56;86.29;99764.09;5057236;28;45403;-76
2023/06/19 02:55:30;;;;;;;;;18.67;17.67;;;;;20.59;86.09;99774.66;5056963;28;45581;-76
2023/06/19 02:57:56;;;;;;;;;24.33;19.67;;;;;20.54;86.73;99771.22;5056734;28;45357;-76
2023/06/19 03:00:22;;;;;;;;;16.00;15.67;;;;;20.41;87.58;99762.66;5057138;28;45501;-77
2023/06/19 03:02:48;;;;;;;;;19.67;18.00;;;;;20.53;86.61;99772.13;5039324;28;45233;-75
2023/06/19 03:05:15;;;;;;;;;18.33;17.67;;;;;20.44;86.45;99773.22;5057006;28;45473;-75
2023/06/19 03:07:41;;;;;;;;;23.33;20.00;;;;;20.51;86.44;99792.50;5056651;28;45178;-75
2023/06/19 03:10:07;;;;;;;;;17.67;17.00;;;;;20.39;87.01;99791.00;5056716;28;45521;-75
2023/06/19 03:12:32;;;;;;;;;18.33;17.00;;;;;20.28;86.42;99783.28;5057073;28;45402;-76
2023/06/19 03:14:58;;;;;;;;;19.33;19.00;;;;;20.35;86.94;99798.19;5056745;28;45466;-76
2023/06/19 03:17:23;;;;;;;;;21.67;16.33;;;;;20.49;87.95;99823.50;5038459;28;45787;-75
2023/06/19 03:19:49;;;;;;;;;20.00;18.00;;;;;20.37;88.22;99806.97;5057324;28;45358;-76
2023/06/19 03:22:14;;;;;;;;;20.33;17.33;;;;;20.43;87.23;99809.47;5039253;28;45720;-75
2023/06/19 03:24:40;;;;;;;;;18.33;16.67;;;;;20.60;86.40;99834.78;5056672;28;45639;-76
2023/06/19 03:27:06;;;;;;;;;19.33;17.67;;;;;20.44;86.07;99805.91;5056522;28;45497;-75
2023/06/19 03:29:31;;;;;;;;;19.00;17.33;;;;;20.45;87.97;99823.59;5038149;28;45457;-76
2023/06/19 03:31:57;;;;;;;;;17.00;16.00;;;;;20.44;86.07;99818.31;5056524;28;45399;-76
2023/06/19 03:34:22;;;;;;;;;16.00;14.00;;;;;20.46;86.45;99820.00;5056238;28;46370;-76
2023/06/19 03:36:48;;;;;;;;;12.00;11.00;;;;;20.51;85.35;99824.34;5038635;28;45281;-76
2023/06/19 03:39:13;;;;;;;;;18.33;14.67;;;;;20.49;85.43;99819.06;5056501;28;45424;-76
2023/06/19 03:41:39;;;;;;;;;13.00;11.67;;;;;20.52;85.91;99813.69;5056895;28;45408;-76
2023/06/19 03:44:04;;;;;;;;;16.00;13.33;;;;;20.53;85.38;99810.16;5056278;28;46221;-76
2023/06/19 03:46:30;;;;;;;;;13.00;12.33;;;;;20.63;85.16;99832.06;5056227;28;46384;-76
2023/06/19 03:48:56;;;;;;;;;16.67;14.00;;;;;20.54;85.35;99819.84;5056288;28;45780;-76
2023/06/19 03:51:21;;;;;;;;;15.33;14.00;;;;;20.64;85.62;99847.06;5056691;28;45579;-76
2023/06/19 03:53:47;;;;;;;;;12.33;12.00;;;;;20.54;84.92;99832.25;5056573;28;46024;-75
2023/06/19 03:56:12;;;;;;;;;14.67;12.67;;;;;20.65;84.83;99843.50;5038147;28;45299;-76
2023/06/19 03:58:38;;;;;;;;;14.67;12.00;;;;;20.61;84.56;99812.63;5056361;28;45465;-76
2023/06/19 04:01:05;;;;;;;;;14.67;12.67;;;;;20.58;84.05;99823.31;5057678;28;45634;-75
2023/06/19 04:03:30;;;;;;;;;6.00;5.00;;;;;20.70;79.80;99819.53;5059614;28;45537;-75
2023/06/19 04:05:56;;;;;;;;;5.67;4.67;;;;;20.75;77.25;99799.03;5059539;28;45478;-76
2023/06/19 04:08:21;;;;;;;;;8.67;5.00;;;;;20.60;77.75;99771.09;5060208;28;45303;-75
2023/06/19 04:10:47;;;;;;;;;4.67;4.67;;;;;20.61;76.50;99788.75;5042166;28;45617;-76
2023/06/19 04:13:13;;;;;;;;;3.33;3.33;;;;;20.63;75.56;99773.66;5041282;28;45581;-76
2023/06/19 04:15:38;;;;;;;;;3.33;3.33;;;;;20.62;74.65;99761.31;5059417;28;45230;-76
2023/06/19 04:18:04;;;;;;;;;3.33;2.33;;;;;20.42;74.70;99725.47;5059595;28;45437;-75
2023/06/19 04:20:29;;;;;;;;;2.33;2.00;;;;;20.52;75.29;99733.25;5059397;28;45514;-76
2023/06/19 04:22:55;;;;;;;;;3.67;2.00;;;;;20.41;76.07;99712.25;5041155;28;48006;-76
2023/06/19 04:25:20;;;;;;;;;2.67;2.67;;;;;20.42;75.85;99721.97;5059629;28;45232;-76
2023/06/19 04:27:46;;;;;;;;;3.33;3.00;;;;;20.51;75.61;99736.78;5041135;28;45527;-76
2023/06/19 04:30:12;;;;;;;;;2.67;2.00;;;;;20.28;75.47;99693.13;5059404;28;45422;-76
2023/06/19 04:32:40;;;;;;;;;3.33;3.00;;;;;20.50;75.35;99721.78;5059180;28;45408;-76
2023/06/19 04:35:09;;;;;;;;;4.00;3.00;;;;;20.43;76.66;99718.38;5040995;28;45473;-76
2023/06/19 04:37:35;;;;;;;;;3.00;3.00;;;;;20.40;77.40;99716.69;5040789;28;45284;-75
2023/06/19 04:40:01;;;;;;;;;3.00;3.00;;;;;20.35;76.48;99721.25;5059330;28;45216;-76
2023/06/19 04:42:27;;;;;;;;;3.00;2.00;;;;;20.19;77.27;99722.50;5059058;28;45941;-76
2023/06/19 04:44:52;;;;;;;;;2.00;2.00;;;;;20.16;76.73;99720.78;5059270;28;45349;-76
2023/06/19 04:47:21;;;;;;;;;2.00;2.00;;;;;20.04;77.67;99711.31;5059428;28;45289;-76
2023/06/19 04:49:47;;;;;;;;;2.00;2.00;;;;;19.98;77.40;99705.28;5059247;28;45345;-75
2023/06/19 04:52:13;;;;;;;;;2.67;2.00;;;;;20.01;77.30;99721.97;5040284;28;45481;-76
2023/06/19 04:54:38;;;;;;;;;3.00;2.67;;;;;20.02;77.73;99728.19;5058677;28;45397;-76
2023/06/19 04:57:04;;;;;;;;;3.00;3.00;;;;;19.97;78.01;99736.22;5040627;28;45463;-76
2023/06/19 04:59:30;;;;;;;;;5.00;4.00;;;;;19.90;78.84;99720.50;5058884;28;45489;-76
2023/06/19 05:01:56;;;;;;;;;4.00;4.00;;;;;19.99;78.77;99736.19;5040445;28;45448;-76
2023/06/19 05:04:22;;;;;;;;;3.33;3.33;;;;;20.00;78.96;99740.59;5040772;28;45366;-76
2023/06/19 05:06:48;;;;;;;;;5.33;4.00;;;;;19.94;79.93;99738.09;5058791;28;45502;-76
2023/06/19 05:09:14;;;;;;;;;6.33;5.00;;;;;19.88;80.58;99725.81;5058997;28;45260;-76
2023/06/19 05:11:40;;;;;;;;;4.67;4.33;;;;;19.97;78.74;99751.25;5058302;28;45910;-76
2023/06/19 05:14:06;;;;;;;;;7.00;6.00;;;;;19.97;78.82;99738.88;5058712;28;45595;-76
2023/06/19 05:16:31;;;;;;;;;7.00;6.00;;;;;20.01;79.85;99737.88;5058596;28;45489;-76
2023/06/19 05:18:57;;;;;;;;;8.00;6.67;;;;;20.11;79.61;99724.44;5040554;28;45593;-76
2023/06/19 05:21:22;;;;;;;;;6.00;5.67;;;;;19.91;78.24;99688.63;5058573;28;46240;-76
2023/06/19 05:23:50;;;;;;;;;5.00;5.00;;;;;20.16;77.10;99718.13;5058496;28;45218;-76
2023/06/19 05:26:20;;;;;;;;;3.67;3.67;;;;;20.25;73.89;99732.94;5040359;28;45508;-76
2023/06/19 05:28:46;;;;;;;;;4.00;4.00;;;;;20.25;74.82;99732.94;5040243;28;45323;-76
2023/06/19 05:31:12;;;;;;;;;5.33;5.00;;;;;20.31;74.85;99732.81;5039932;28;48265;-76
2023/06/19 05:33:37;;;;;;;;;6.67;6.67;;;;;20.36;75.49;99732.72;5040073;28;45449;-76
2023/06/19 05:36:03;;;;;;;;;6.00;5.67;;;;;20.43;74.83;99751.13;5058314;28;45457;-76
2023/06/19 05:38:30;;;;;;;;;3.00;3.00;;;;;20.21;72.29;99710.06;5058558;28;45423;-76
2023/06/19 05:40:59;;;;;;;;;5.00;4.67;;;;;20.53;70.65;99758.84;5058483;28;45311;-76
2023/06/19 05:43:25;;;;;;;;;3.00;3.00;;;;;20.59;70.11;99749.00;5058296;28;45401;-76
2023/06/19 05:45:51;;;;;;;;;4.00;3.33;;;;;20.65;68.11;99747.97;5040054;28;45353;-76
2023/06/19 05:48:17;;;;;;;;;5.00;4.00;;;;;20.83;65.95;99744.88;5058291;28;45176;-76
2023/06/19 05:50:43;;;;;;;;;5.00;5.00;;;;;21.02;65.66;99763.84;5057991;28;45535;-76
2023/06/19 05:53:08;;;;;;;;;4.00;4.00;;;;;21.09;65.89;99767.25;5039363;28;45904;-75
2023/06/19 05:55:34;;;;;;;;;5.00;4.00;;;;;21.14;66.03;99765.34;5057693;28;45588;-76
2023/06/19 05:57:59;;;;;;;;;3.00;3.00;;;;;21.19;64.74;99742.19;5040041;28;45561;-76
2023/06/19 06:00:25;;;;;;;;;3.67;3.00;;;;;21.25;64.67;99749.13;5058148;28;45366;-76
2023/06/19 06:02:53;;;;;;;;;3.67;2.67;;;;;21.27;64.75;99734.03;5057843;28;45356;-75
2023/06/19 06:05:20;;;;;;;;;4.33;3.67;;;;;21.29;65.08;99731.31;5039829;28;45549;-75
2023/06/19 06:07:46;;;;;;;;;4.00;4.00;;;;;21.39;63.73;99728.38;5057975;28;45335;-76
2023/06/19 06:10:11;;;;;;;;;3.67;3.00;;;;;21.51;63.50;99732.50;5057401;28;45498;-76
2023/06/19 06:12:37;;;;;;;;;3.67;3.00;;;;;21.58;63.61;99725.22;5039446;28;45332;-76
2023/06/19 06:15:04;;;;;;;;;4.00;3.00;;;;;21.63;64.37;99716.22;5057628;28;45228;-76
2023/06/19 06:17:30;;;;;;;;;5.67;4.33;;;;;21.58;64.48;99691.53;5058064;28;45310;-76
2023/06/19 06:19:55;;;;;;;;;3.67;3.67;;;;;21.67;65.15;99718.78;5057516;28;46153;-75
2023/06/19 06:22:21;;;;;;;;;4.00;4.00;;;;;21.67;64.98;99714.34;5057274;28;45505;-76
2023/06/19 06:24:46;;;;;;;;;4.00;4.00;;;;;21.61;64.25;99702.09;5038642;28;45488;-76
2023/06/19 06:27:13;;;;;;;;;4.67;4.67;;;;;21.65;65.41;99708.19;5039535;28;45521;-75
2023/06/19 06:29:38;;;;;;;;;5.67;4.00;;;;;21.72;67.19;99711.53;5057242;28;46355;-76
2023/06/19 06:32:08;;;;;;;;;4.00;3.00;;;;;21.83;67.92;99722.75;5057329;28;45394;-76
2023/06/19 06:34:34;;;;;;;;;4.00;3.67;;;;;21.86;67.34;99717.31;5057412;28;45386;-76
2023/06/19 06:37:02;;;;;;;;;6.00;5.00;;;;;21.79;68.33;99697.16;5057659;28;45489;-76
2023/06/19 06:39:27;;;;;;;;;5.00;5.00;;;;;21.94;68.14;99715.28;5038378;28;47030;-75
2023/06/19 06:41:53;;;;;;;;;4.33;4.33;;;;;21.91;68.94;99694.13;5038083;28;45504;-75
2023/06/19 06:44:19;;;;;;;;;4.00;4.00;;;;;22.07;69.05;99705.16;5056662;28;45433;-75
2023/06/19 06:46:44;;;;;;;;;5.67;4.00;;;;;21.94;69.19;99683.38;5056407;28;45524;-75
2023/06/19 06:49:11;;;;;;;;;3.67;3.00;;;;;22.18;68.66;99710.16;5056153;28;46072;-76
2023/06/19 06:51:37;;;;;;;;;4.00;4.00;;;;;22.23;69.39;99701.09;5055472;28;45473;-75
2023/06/19 06:54:03;;;;;;;;;5.00;4.67;;;;;22.25;68.68;99709.09;5055723;28;45473;-75
2023/06/19 06:56:28;;;;;;;;;5.00;4.00;;;;;22.19;70.42;99693.28;5056363;28;45556;-76
2023/06/19 06:58:54;;;;;;;;;5.33;5.00;;;;;22.01;68.55;99674.31;5045891;28;46358;-75
2023/06/19 07:01:19;;;;;;;;;4.67;4.33;;;;;22.16;69.55;99688.03;5054455;28;45552;-75
2023/06/19 07:03:45;;;;;;;;;5.00;3.67;;;;;22.34;70.03;99707.91;5056134;28;45462;-75
2023/06/19 07:06:10;;;;;;;;;5.00;4.00;;;;;22.32;70.08;99693.78;5046343;28;45621;-75
2023/06/19 07:08:37;;;;;;;;;3.67;3.67;;;;;22.44;68.95;99698.69;5055458;28;46506;-75
2023/06/19 07:11:05;;;;;;;;;3.67;3.33;;;;;22.44;67.55;99688.94;5055727;28;45533;-76
2023/06/19 07:13:30;;;;;;;;;5.00;4.00;;;;;22.62;68.85;99702.56;5055989;28;45504;-75
2023/06/19 07:15:58;;;;;;;;;4.67;3.33;;;;;22.86;67.16;99679.59;5056128;28;45502;-75
2023/06/19 07:18:23;;;;;;;;;5.33;4.00;;;;;23.87;65.61;99677.72;5045897;28;47425;-75
2023/06/19 07:20:49;;;;;;;;;5.00;5.00;;;;;25.06;62.75;99681.78;5055524;28;45236;-76
2023/06/19 07:23:15;;;;;;;;;4.00;4.00;;;;;25.74;57.45;99654.69;5055522;28;45581;-75
2023/06/19 07:25:41;;;;;;;;;7.00;5.67;;;;;25.66;60.49;99663.06;5053313;28;45485;-75
2023/06/19 07:28:06;;;;;;;;;4.67;4.67;;;;;25.48;60.96;99656.78;5037156;28;46379;-75
2023/06/19 07:30:32;;;;;;;;;6.00;5.00;;;;;25.45;59.10;99664.94;5037663;28;45337;-75
2023/06/19 07:32:57;;;;;;;;;4.33;4.00;;;;;25.43;58.43;99658.81;5055892;28;45978;-76
2023/06/19 07:35:23;;;;;;;;;5.00;3.00;;;;;25.68;57.24;99650.50;5056131;28;45502;-76
2023/06/19 07:37:48;;;;;;;;;4.00;4.00;;;;;26.51;55.90;99656.38;5059010;28;46093;-76
2023/06/19 07:40:14;;;;;;;;;3.00;3.00;;;;;27.08;54.79;99643.63;5059355;28;45432;-76
2023/06/19 07:42:40;;;;;;;;;4.67;4.00;;;;;27.53;52.97;99647.50;5040940;28;45343;-75
2023/06/19 07:45:06;;;;;;;;;4.00;3.00;;;;;27.72;49.60;99638.47;5059640;28;45360;-77
2023/06/19 07:47:31;;;;;;;;;5.00;4.00;;;;;27.45;51.06;99646.19;5059964;28;46526;-78
2023/06/19 07:49:57;;;;;;;;;4.00;3.00;;;;;27.47;49.55;99655.03;5058485;28;45458;-77
2023/06/19 07:52:22;;;;;;;;;5.67;5.67;;;;;26.92;50.85;99648.94;5059276;28;45259;-78
2023/06/19 07:54:53;;;;;;;;;4.00;4.00;;;;;26.71;53.04;99663.44;5059241;28;45643;-77
2023/06/19 07:57:20;;;;;;;;;5.00;3.67;;;;;26.44;54.69;99669.22;5058948;28;46259;-76
2023/06/19 07:59:47;;;;;;;;;6.00;6.00;;;;;26.24;54.48;99659.47;5058666;28;45399;-78
2023/06/19 08:02:13;;;;;;;;;4.33;4.00;;;;;26.24;54.00;99669.31;5038218;28;45564;-76
2023/06/19 08:04:38;;;;;;;;;6.00;5.33;;;;;26.27;53.39;99662.00;5058945;28;45447;-76
2023/06/19 08:07:05;;;;;;;;;4.00;4.00;;;;;26.39;53.75;99663.22;5041701;28;46364;-76
2023/06/19 08:09:31;;;;;;;;;6.00;5.00;;;;;26.41;54.62;99660.47;5060569;28;45556;-76
2023/06/19 08:11:57;;;;;;;;;3.00;2.33;;;;;26.53;52.40;99655.34;5041820;28;45260;-77
2023/06/19 08:14:23;;;;;;;;;3.33;3.33;;;;;26.82;52.67;99647.69;5049621;28;45535;-76
2023/06/19 08:16:48;;;;;;;;;4.00;4.00;;;;;27.02;51.49;99668.09;5040826;28;46790;-76
2023/06/19 08:19:14;;;;;;;;;4.00;3.00;;;;;27.01;51.25;99668.16;5059880;28;45577;-76
2023/06/19 08:21:40;;;;;;;;;4.67;4.67;;;;;27.19;50.69;99664.50;5041721;28;45517;-77
2023/06/19 08:24:06;;;;;;;;;5.00;4.00;;;;;27.57;51.03;99656.25;5061559;28;45469;-76
2023/06/19 08:26:32;;;;;;;;;4.67;3.00;;;;;28.20;47.40;99651.91;5042286;28;46840;-77
2023/06/19 08:28:58;;;;;;;;;6.00;6.00;;;;;28.83;45.98;99651.81;5041550;28;45495;-77
2023/06/19 08:31:27;;;;;;;;;4.00;4.00;;;;;29.21;46.58;99623.53;5060027;28;45480;-77
2023/06/19 08:33:54;;;;;;;;;4.00;3.67;;;;;30.27;45.02;99641.03;5059537;28;45379;-77
2023/06/19 08:36:20;;;;;;;;;4.00;3.00;;;;;30.38;42.17;99616.09;5059607;28;45493;-77
2023/06/19 08:38:49;;;;;;;;;2.33;2.00;;;;;30.94;42.79;99627.56;5060057;28;45369;-78
2023/06/19 08:41:21;;;;;;;;;4.00;3.00;;;;;31.23;41.76;99625.50;5041354;28;45405;-78
2023/06/19 08:43:46;;;;;;;;;4.67;4.00;;;;;32.02;40.56;99622.63;5025724;28;45766;-78
2023/06/19 08:46:17;;;;;;;;;3.67;3.33;;;;;32.36;37.03;99610.13;5041467;28;47937;-79
2023/06/19 08:48:43;;;;;;;;;3.33;3.33;;;;;33.32;37.94;99629.88;5059826;28;45454;-79
2023/06/19 08:51:10;;;;;;;;;2.00;2.00;;;;;34.46;37.79;99622.34;5059740;28;45256;-78
2023/06/19 08:53:44;;;;;;;;;2.00;1.33;;;;;35.17;31.99;99604.59;5042367;28;45331;-79
2023/06/19 08:56:10;;;;;;;;;3.00;2.00;;;;;35.22;34.53;99619.47;5059231;28;46892;-78
2023/06/19 08:58:37;;;;;;;;;2.33;2.00;;;;;35.80;33.53;99604.44;5041348;28;45426;-79
2023/06/19 09:01:03;;;;;;;;;5.00;3.33;;;;;36.23;31.97;99604.09;5059869;28;45748;-79
2023/06/19 09:03:31;;;;;;;;;2.00;2.00;;;;;36.36;31.39;99605.69;5040210;28;45402;-79
2023/06/19 09:06:06;;;;;;;;;2.00;2.00;;;;;36.32;31.61;99601.53;5058860;28;45366;-78
2023/06/19 09:08:32;;;;;;;;;3.33;2.00;;;;;36.22;30.58;99594.22;5038003;28;45447;-79
2023/06/19 09:10:59;;;;;;;;;2.33;2.00;;;;;36.04;31.75;99602.19;5058862;28;45379;-80
2023/06/19 09:13:25;;;;;;;;;2.67;2.67;;;;;35.72;32.53;99605.13;5024659;28;45479;-79
2023/06/19 09:16:02;;;;;;;;;2.00;2.00;;;;;35.67;32.82;99601.09;5057126;28;45319;-80
2023/06/19 09:18:31;;;;;;;;;2.33;2.33;;;;;35.56;32.45;99593.91;5058529;28;45190;-80
2023/06/19 09:20:57;;;;;;;;;2.00;2.00;;;;;35.24;31.96;99584.06;5059060;28;45462;-79
2023/06/19 09:23:24;;;;;;;;;3.67;3.00;;;;;34.56;33.66;99602.53;5040121;28;45579;-79
2023/06/19 09:25:52;;;;;;;;;3.00;2.00;;;;;34.14;34.06;99592.53;5058682;28;46273;-79
2023/06/19 09:28:18;;;;;;;;;2.33;2.33;;;;;33.55;33.79;99555.78;5056987;28;45529;-78
2023/06/19 09:31:00;;;;;;;;;4.67;4.00;;;;;33.37;34.88;99603.31;5041284;28;45408;-84
2023/06/19 09:33:28;;;;;;;;;2.00;1.33;;;;;32.80;35.46;99596.91;5041376;28;45278;-80
2023/06/19 09:36:01;;;;;;;;;3.67;3.67;;;;;32.51;35.25;99610.81;5058755;28;46995;-83
2023/06/19 09:38:30;;;;;;;;;2.33;2.33;;;;;32.38;35.96;99616.28;5062043;28;45544;-81
2023/06/19 09:40:59;;;;;;;;;5.00;5.00;;;;;32.29;36.73;99582.72;5043829;28;45329;-76
2023/06/19 09:43:36;;;;;;;;;3.33;3.33;;;;;32.70;36.15;99605.75;5061941;28;45496;-82
2023/06/19 09:46:04;;;;;;;;;4.00;3.00;;;;;32.95;36.17;99606.56;5061286;28;45533;-84
2023/06/19 09:48:32;;;;;;;;;3.00;3.00;;;;;33.17;35.67;99594.06;5061429;28;45317;-84
2023/06/19 09:51:09;;;;;;;;;3.00;2.00;;;;;33.46;36.03;99592.56;5061900;28;45265;-83
2023/06/19 09:53:36;;;;;;;;;3.00;3.00;;;;;33.42;35.06;99574.84;5064677;28;45311;-74
2023/06/19 09:56:02;;;;;;;;;2.00;2.00;;;;;33.82;34.60;99587.00;5057740;28;45362;-84
2023/06/19 09:58:29;;;;;;;;;3.67;3.67;;;;;34.38;33.08;99592.31;5056617;28;45463;-82
2023/06/19 10:00:55;;;;;;;;;2.00;2.00;;;;;34.42;32.22;99572.06;5057665;28;45248;-84
2023/06/19 10:03:20;;;;;;;;;2.33;2.33;;;;;34.58;31.72;99585.19;5039551;28;46035;-84
2023/06/19 10:05:46;;;;;;;;;1.33;1.33;;;;;34.28;33.16;99596.75;5055935;28;46670;-84
2023/06/19 10:08:12;;;;;;;;;2.00;2.00;;;;;33.88;32.52;99597.34;5057788;28;45515;-81
2023/06/19 10:10:48;;;;;;;;;3.33;1.67;;;;;33.70;33.50;99591.59;5059140;28;45222;-84
2023/06/19 10:13:16;;;;;;;;;2.00;2.00;;;;;33.95;33.90;99595.00;5056267;28;45349;-84
2023/06/19 10:15:43;;;;;;;;;4.00;3.33;;;;;33.98;33.15;99579.38;5057390;28;45524;-83
2023/06/19 10:18:16;;;;;;;;;3.33;2.33;;;;;34.35;32.67;99579.00;5057211;28;45413;-80
2023/06/19 10:20:43;;;;;;;;;2.33;2.00;;;;;34.60;32.68;99580.47;5056953;28;45430;-80
2023/06/19 10:23:21;;;;;;;;;3.00;3.00;;;;;35.00;31.55;99533.63;5056673;28;45493;-75
2023/06/19 10:25:55;;;;;;;;;3.00;2.33;;;;;35.73;30.18;99559.78;5054975;28;45648;-77
2023/06/19 10:28:24;;;;;;;;;1.67;1.67;;;;;36.03;30.07;99558.81;5054144;28;45358;-78
2023/06/19 10:31:02;;;;;;;;;3.00;3.00;;;;;36.34;29.26;99569.63;5037776;28;45509;-80
2023/06/19 10:33:36;;;;;;;;;2.00;2.00;;;;;36.54;29.34;99570.47;5055727;28;45426;-78
2023/06/19 10:36:16;;;;;;;;;2.33;2.33;;;;;36.25;29.03;99571.31;5036570;28;46130;-81
2023/06/19 10:38:47;;;;;;;;;3.33;3.00;;;;;35.89;29.67;99584.56;5039522;28;45494;-76
2023/06/19 10:41:16;;;;;;;;;2.00;2.00;;;;;35.77;30.36;99558.50;5037426;28;45539;-78
2023/06/19 10:43:42;;;;;;;;;5.67;5.33;;;;;36.28;29.74;99568.31;5037048;28;45458;-79
2023/06/19 10:46:07;;;;;;;;;3.00;2.33;;;;;36.59;29.89;99571.75;5042882;28;45407;-77
2023/06/19 10:48:33;;;;;;;;;3.67;3.67;;;;;36.67;30.09;99578.34;5055812;28;45406;-80
2023/06/19 10:50:59;;;;;;;;;3.33;3.00;;;;;36.92;30.50;99558.66;5037803;28;45521;-82
2023/06/19 10:53:31;;;;;;;;;3.67;3.67;;;;;37.08;29.30;99551.72;5056209;28;45481;-75
2023/06/19 10:56:01;;;;;;;;;3.00;3.00;;;;;36.95;29.85;99555.66;5055591;28;45303;-79
2023/06/19 10:58:29;;;;;;;;;3.67;3.67;;;;;36.51;29.65;99548.97;5055709;28;45655;-78
2023/06/19 11:00:55;;;;;;;;;3.00;3.00;;;;;36.08;30.02;99561.13;5056387;28;45418;-80
2023/06/19 11:03:21;;;;;;;;;3.00;3.00;;;;;35.51;30.25;99558.13;5056324;28;45462;-79
2023/06/19 11:05:47;;;;;;;;;3.00;2.33;;;;;34.96;30.98;99558.44;5037526;28;45558;-77
2023/06/19 11:08:23;;;;;;;;;3.00;3.00;;;;;34.39;31.77;99566.03;5037326;28;45628;-77
2023/06/19 11:10:50;;;;;;;;;4.00;3.00;;;;;33.98;31.76;99568.53;5058376;28;45570;-77
2023/06/19 11:13:19;;;;;;;;;3.00;2.00;;;;;33.67;32.40;99557.50;5060472;28;45548;-76
2023/06/19 11:15:47;;;;;;;;;4.00;4.00;;;;;33.33;32.91;99556.66;5060257;28;46026;-79
2023/06/19 11:18:16;;;;;;;;;4.33;3.67;;;;;32.99;33.83;99577.38;5060179;28;45406;-77
2023/06/19 11:20:51;;;;;;;;;3.00;3.00;;;;;32.46;33.96;99567.91;5060482;28;45611;-77
2023/06/19 11:23:25;;;;;;;;;3.00;3.00;;;;;32.05;34.44;99582.75;5060247;28;45263;-78
2023/06/19 11:25:50;;;;;;;;;2.00;2.00;;;;;31.58;34.72;99564.63;5058553;28;47728;-78